Terminal Aerodrome Forecast
Issued by NWS Pittsburgh, PA

Current Version | Previous Version | Graphics & Text | Print | Product List | Glossary On
Versions: 1 2 3 4 5 6 7 8 9 10 11 12 13 14 15 16 17 18 19 20 21 22 23 24 25 26 27 28 29 30 31 32 33 34
000
FTUS41 KPBZ 191458 AAA
TAFPIT
TAF AMD
KPIT 191458Z 1915/2018 25004KT P6SM OVC007
     FM191700 24004KT P6SM SCT008 OVC015
     FM191900 19003KT P6SM OVC025
     FM192100 18003KT P6SM BKN050
     FM201000 09005KT P6SM OVC080
     FM201300 12006KT 3SM -SHRA OVC025=

USA.gov is the U.S. government's official web portal to all federal, state and local government web resources and services.